sensor_id;sensor_type;location;lat;lon;timestamp;pressure;altitude;pressure_sealevel;temperature;humidity
58757;BME280;44527;47.460;19.016;2023-04-25T00:01:23;99249.94;;;12.34;95.00
58757;BME280;44527;47.460;19.016;2023-04-25T00:04:26;99237.88;;;12.41;93.68
58757;BME280;44527;47.460;19.016;2023-04-25T00:07:30;99225.28;;;12.26;90.98
58757;BME280;44527;47.460;19.016;2023-04-25T00:10:33;99233.88;;;12.37;90.86
58757;BME280;44527;47.460;19.016;2023-04-25T00:13:35;99237.59;;;12.35;92.52
58757;BME280;44527;47.460;19.016;2023-04-25T00:16:37;99224.88;;;12.21;89.98
58757;BME280;44527;47.460;19.016;2023-04-25T00:19:39;99217.53;;;12.14;89.51
58757;BME280;44527;47.460;19.016;2023-04-25T00:22:42;99217.25;;;12.17;90.29
58757;BME280;44527;47.460;19.016;2023-04-25T00:25:44;99222.22;;;12.21;89.57
58757;BME280;44527;47.460;19.016;2023-04-25T00:28:47;99224.31;;;12.17;89.20
58757;BME280;44527;47.460;19.016;2023-04-25T00:31:49;99221.81;;;12.06;88.34
58757;BME280;44527;47.460;19.016;2023-04-25T00:34:51;99212.28;;;12.14;89.28
58757;BME280;44527;47.460;19.016;2023-04-25T00:37:54;99207.28;;;12.11;89.61
58757;BME280;44527;47.460;19.016;2023-04-25T00:40:56;99209.09;;;12.01;91.67
58757;BME280;44527;47.460;19.016;2023-04-25T00:43:59;99194.69;;;11.95;89.99
58757;BME280;44527;47.460;19.016;2023-04-25T00:47:02;99197.19;;;11.97;89.81
58757;BME280;44527;47.460;19.016;2023-04-25T00:50:05;99185.84;;;12.06;91.01
58757;BME280;44527;47.460;19.016;2023-04-25T00:53:08;99191.13;;;12.06;90.88
58757;BME280;44527;47.460;19.016;2023-04-25T00:56:11;99180.69;;;12.14;90.45
58757;BME280;44527;47.460;19.016;2023-04-25T00:59:14;99175.19;;;11.98;92.31
58757;BME280;44527;47.460;19.016;2023-04-25T01:02:17;99164.22;;;12.03;91.63
58757;BME280;44527;47.460;19.016;2023-04-25T01:05:19;99168.56;;;11.94;90.24
58757;BME280;44527;47.460;19.016;2023-04-25T01:08:22;99165.94;;;11.94;89.23
58757;BME280;44527;47.460;19.016;2023-04-25T01:11:25;99166.19;;;11.91;88.44
58757;BME280;44527;47.460;19.016;2023-04-25T01:14:27;99141.81;;;11.99;90.80
58757;BME280;44527;47.460;19.016;2023-04-25T01:17:30;99152.63;;;11.95;90.45
58757;BME280;44527;47.460;19.016;2023-04-25T01:20:33;99152.63;;;12.05;91.40
58757;BME280;44527;47.460;19.016;2023-04-25T01:23:36;99150.81;;;11.96;90.48
58757;BME280;44527;47.460;19.016;2023-04-25T01:26:39;99161.59;;;12.03;89.79
58757;BME280;44527;47.460;19.016;2023-04-25T01:29:42;99157.06;;;11.95;88.22
58757;BME280;44527;47.460;19.016;2023-04-25T01:32:44;99150.38;;;11.81;87.95
58757;BME280;44527;47.460;19.016;2023-04-25T01:35:47;99143.09;;;11.85;88.43
58757;BME280;44527;47.460;19.016;2023-04-25T01:38:49;99141.38;;;11.84;86.97
58757;BME280;44527;47.460;19.016;2023-04-25T01:41:51;99158.12;;;11.83;87.87
58757;BME280;44527;47.460;19.016;2023-04-25T01:44:54;99132.94;;;11.80;86.84
58757;BME280;44527;47.460;19.016;2023-04-25T01:47:56;99141.53;;;11.72;88.00
58757;BME280;44527;47.460;19.016;2023-04-25T01:51:01;99152.88;;;11.73;88.57
58757;BME280;44527;47.460;19.016;2023-04-25T01:54:03;99136.84;;;11.66;86.82
58757;BME280;44527;47.460;19.016;2023-04-25T01:57:05;99147.47;;;11.74;88.58
58757;BME280;44527;47.460;19.016;2023-04-25T02:00:09;99136.56;;;11.69;86.83
58757;BME280;44527;47.460;19.016;2023-04-25T02:03:12;99148.84;;;11.69;87.34
58757;BME280;44527;47.460;19.016;2023-04-25T02:06:15;99157.31;;;11.72;86.33
58757;BME280;44527;47.460;19.016;2023-04-25T02:09:17;99148.16;;;11.77;86.69
58757;BME280;44527;47.460;19.016;2023-04-25T02:12:20;99157.97;;;11.74;85.82
58757;BME280;44527;47.460;19.016;2023-04-25T02:15:22;99147.34;;;11.76;86.29
58757;BME280;44527;47.460;19.016;2023-04-25T02:18:24;99155.63;;;11.71;85.96
58757;BME280;44527;47.460;19.016;2023-04-25T02:21:28;99152.59;;;11.66;85.55
58757;BME280;44527;47.460;19.016;2023-04-25T02:24:30;99150.38;;;11.71;85.55
58757;BME280;44527;47.460;19.016;2023-04-25T02:27:33;99159.50;;;11.67;85.90
58757;BME280;44527;47.460;19.016;2023-04-25T02:30:36;99155.91;;;11.68;84.82
58757;BME280;44527;47.460;19.016;2023-04-25T02:33:39;99147.47;;;11.65;84.14
58757;BME280;44527;47.460;19.016;2023-04-25T02:36:41;99157.97;;;11.55;83.46
58757;BME280;44527;47.460;19.016;2023-04-25T02:39:43;99147.59;;;11.54;82.64
58757;BME280;44527;47.460;19.016;2023-04-25T02:42:46;99156.31;;;11.64;82.51
58757;BME280;44527;47.460;19.016;2023-04-25T02:45:48;99154.09;;;11.59;81.45
58757;BME280;44527;47.460;19.016;2023-04-25T02:48:52;99160.22;;;11.69;81.04
58757;BME280;44527;47.460;19.016;2023-04-25T02:51:54;99168.22;;;11.68;81.29
58757;BME280;44527;47.460;19.016;2023-04-25T02:54:57;99161.97;;;11.59;80.88
58757;BME280;44527;47.460;19.016;2023-04-25T02:57:59;99161.16;;;11.59;81.26
58757;BME280;44527;47.460;19.016;2023-04-25T03:01:02;99160.16;;;11.50;82.67
58757;BME280;44527;47.460;19.016;2023-04-25T03:04:04;99158.25;;;11.52;81.63
58757;BME280;44527;47.460;19.016;2023-04-25T03:07:07;99149.53;;;11.42;82.73
58757;BME280;44527;47.460;19.016;2023-04-25T03:10:09;99152.44;;;11.48;81.18
58757;BME280;44527;47.460;19.016;2023-04-25T03:13:12;99155.72;;;11.41;82.61
58757;BME280;44527;47.460;19.016;2023-04-25T03:16:15;99144.28;;;11.42;82.51
58757;BME280;44527;47.460;19.016;2023-04-25T03:19:18;99136.94;;;11.36;83.44
58757;BME280;44527;47.460;19.016;2023-04-25T03:22:20;99143.69;;;11.28;82.89
58757;BME280;44527;47.460;19.016;2023-04-25T03:25:22;99148.37;;;11.35;83.29
58757;BME280;44527;47.460;19.016;2023-04-25T03:28:24;99136.78;;;11.27;82.51
58757;BME280;44527;47.460;19.016;2023-04-25T03:31:30;99129.00;;;11.26;82.03
58757;BME280;44527;47.460;19.016;2023-04-25T03:34:33;99130.00;;;11.25;80.82
58757;BME280;44527;47.460;19.016;2023-04-25T03:37:35;99134.16;;;11.27;81.77
58757;BME280;44527;47.460;19.016;2023-04-25T03:40:37;99134.81;;;11.20;82.07
58757;BME280;44527;47.460;19.016;2023-04-25T03:43:41;99145.28;;;11.10;82.76
58757;BME280;44527;47.460;19.016;2023-04-25T03:46:45;99139.91;;;11.12;82.91
58757;BME280;44527;47.460;19.016;2023-04-25T03:49:50;99141.56;;;11.03;82.71
58757;BME280;44527;47.460;19.016;2023-04-25T03:52:53;99151.25;;;11.12;83.76
58757;BME280;44527;47.460;19.016;2023-04-25T03:55:58;99151.09;;;11.14;83.76
58757;BME280;44527;47.460;19.016;2023-04-25T03:59:00;99163.31;;;11.24;83.72
58757;BME280;44527;47.460;19.016;2023-04-25T04:02:03;99160.13;;;11.21;84.26
58757;BME280;44527;47.460;19.016;2023-04-25T04:05:06;99162.75;;;11.21;84.55
58757;BME280;44527;47.460;19.016;2023-04-25T04:08:09;99163.13;;;11.16;84.85
58757;BME280;44527;47.460;19.016;2023-04-25T04:11:13;99169.09;;;11.18;84.12
58757;BME280;44527;47.460;19.016;2023-04-25T04:14:16;99173.94;;;11.23;83.44
58757;BME280;44527;47.460;19.016;2023-04-25T04:17:19;99178.50;;;11.21;84.31
58757;BME280;44527;47.460;19.016;2023-04-25T04:20:21;99176.28;;;11.26;85.29
58757;BME280;44527;47.460;19.016;2023-04-25T04:23:23;99174.72;;;11.14;84.52
58757;BME280;44527;47.460;19.016;2023-04-25T04:26:26;99177.16;;;11.26;86.08
58757;BME280;44527;47.460;19.016;2023-04-25T04:29:29;99174.25;;;11.30;87.08
58757;BME280;44527;47.460;19.016;2023-04-25T04:32:32;99179.44;;;11.10;87.47
58757;BME280;44527;47.460;19.016;2023-04-25T04:35:35;99192.47;;;11.21;89.88
58757;BME280;44527;47.460;19.016;2023-04-25T04:38:39;99185.63;;;10.99;88.35
58757;BME280;44527;47.460;19.016;2023-04-25T04:41:44;99180.94;;;11.03;90.99
58757;BME280;44527;47.460;19.016;2023-04-25T04:44:47;99187.97;;;11.02;92.67
58757;BME280;44527;47.460;19.016;2023-04-25T04:47:51;99183.06;;;10.88;90.08
58757;BME280;44527;47.460;19.016;2023-04-25T04:50:55;99186.00;;;10.95;90.53
58757;BME280;44527;47.460;19.016;2023-04-25T04:53:59;99197.50;;;11.03;90.51
58757;BME280;44527;47.460;19.016;2023-04-25T04:57:05;99187.56;;;11.07;91.55
58757;BME280;44527;47.460;19.016;2023-04-25T05:00:07;99189.00;;;11.11;93.70
58757;BME280;44527;47.460;19.016;2023-04-25T05:03:14;99188.28;;;10.78;96.14
58757;BME280;44527;47.460;19.016;2023-04-25T05:06:48;99182.75;;;10.72;98.47
58757;BME280;44527;47.460;19.016;2023-04-25T05:09:57;99189.28;;;10.56;98.58
58757;BME280;44527;47.460;19.016;2023-04-25T05:13:01;99187.34;;;10.58;97.61
58757;BME280;44527;47.460;19.016;2023-04-25T05:16:11;99189.97;;;10.58;100.00
58757;BME280;44527;47.460;19.016;2023-04-25T05:19:19;99182.81;;;10.40;99.24
58757;BME280;44527;47.460;19.016;2023-04-25T05:22:24;99188.84;;;10.19;100.00
58757;BME280;44527;47.460;19.016;2023-04-25T05:25:31;99190.06;;;10.15;100.00
58757;BME280;44527;47.460;19.016;2023-04-25T05:29:12;99184.44;;;9.99;100.00
58757;BME280;44527;47.460;19.016;2023-04-25T05:33:04;99188.16;;;9.85;100.00
58757;BME280;44527;47.460;19.016;2023-04-25T05:36:37;99191.19;;;9.80;100.00
58757;BME280;44527;47.460;19.016;2023-04-25T05:40:45;99183.75;;;9.85;100.00
58757;BME280;44527;47.460;19.016;2023-04-25T05:44:27;99181.75;;;9.89;100.00
58757;BME280;44527;47.460;19.016;2023-04-25T05:47:52;99185.09;;;9.80;100.00
58757;BME280;44527;47.460;19.016;2023-04-25T05:50:56;99190.72;;;9.75;100.00
58757;BME280;44527;47.460;19.016;2023-04-25T05:54:07;99190.22;;;9.81;100.00
58757;BME280;44527;47.460;19.016;2023-04-25T05:57:17;99200.22;;;9.76;100.00
58757;BME280;44527;47.460;19.016;2023-04-25T06:00:20;99195.69;;;9.78;100.00
58757;BME280;44527;47.460;19.016;2023-04-25T06:03:24;99217.81;;;9.85;100.00
58757;BME280;44527;47.460;19.016;2023-04-25T06:06:27;99202.63;;;10.00;100.00
58757;BME280;44527;47.460;19.016;2023-04-25T06:09:30;99209.69;;;10.00;100.00
58757;BME280;44527;47.460;19.016;2023-04-25T06:12:32;99217.69;;;9.98;100.00
58757;BME280;44527;47.460;19.016;2023-04-25T06:15:35;99218.28;;;10.23;100.00
58757;BME280;44527;47.460;19.016;2023-04-25T06:18:37;99220.06;;;10.54;100.00
58757;BME280;44527;47.460;19.016;2023-04-25T06:21:41;99225.34;;;10.64;100.00
58757;BME280;44527;47.460;19.016;2023-04-25T06:24:44;99222.47;;;10.67;100.00
58757;BME280;44527;47.460;19.016;2023-04-25T06:27:46;99220.66;;;10.89;100.00
58757;BME280;44527;47.460;19.016;2023-04-25T06:30:51;99217.25;;;10.98;100.00
58757;BME280;44527;47.460;19.016;2023-04-25T06:33:54;99216.09;;;11.21;100.00
58757;BME280;44527;47.460;19.016;2023-04-25T06:36:58;99221.63;;;11.18;100.00
58757;BME280;44527;47.460;19.016;2023-04-25T06:40:02;99223.09;;;11.42;100.00
58757;BME280;44527;47.460;19.016;2023-04-25T06:43:04;99218.94;;;11.39;100.00
58757;BME280;44527;47.460;19.016;2023-04-25T06:46:07;99237.09;;;11.62;100.00
58757;BME280;44527;47.460;19.016;2023-04-25T06:49:09;99225.13;;;11.38;100.00
58757;BME280;44527;47.460;19.016;2023-04-25T06:52:12;99227.22;;;11.44;100.00
58757;BME280;44527;47.460;19.016;2023-04-25T06:55:14;99222.78;;;11.35;97.71
58757;BME280;44527;47.460;19.016;2023-04-25T06:58:19;99227.38;;;11.43;100.00
58757;BME280;44527;47.460;19.016;2023-04-25T07:01:23;99238.81;;;11.32;100.00
58757;BME280;44527;47.460;19.016;2023-04-25T07:04:26;99235.00;;;11.46;97.47
58757;BME280;44527;47.460;19.016;2023-04-25T07:07:30;99239.56;;;11.13;100.00
58757;BME280;44527;47.460;19.016;2023-04-25T07:10:32;99235.09;;;11.35;97.46
58757;BME280;44527;47.460;19.016;2023-04-25T07:13:36;99241.91;;;11.47;100.00
58757;BME280;44527;47.460;19.016;2023-04-25T07:16:39;99237.19;;;11.50;98.37
58757;BME280;44527;47.460;19.016;2023-04-25T07:19:42;99243.91;;;11.74;100.00
58757;BME280;44527;47.460;19.016;2023-04-25T07:22:46;99246.50;;;11.64;100.00
58757;BME280;44527;47.460;19.016;2023-04-25T07:25:48;99247.00;;;11.89;95.12
58757;BME280;44527;47.460;19.016;2023-04-25T07:28:52;99239.28;;;12.07;89.89
58757;BME280;44527;47.460;19.016;2023-04-25T07:31:57;99238.19;;;12.19;97.38
58757;BME280;44527;47.460;19.016;2023-04-25T07:34:59;99249.22;;;12.42;97.27
58757;BME280;44527;47.460;19.016;2023-04-25T07:38:04;99253.37;;;12.45;89.21
58757;BME280;44527;47.460;19.016;2023-04-25T07:41:10;99253.94;;;12.29;89.37
58757;BME280;44527;47.460;19.016;2023-04-25T07:44:12;99257.84;;;12.25;94.30
58757;BME280;44527;47.460;19.016;2023-04-25T07:47:15;99253.09;;;12.57;88.56
58757;BME280;44527;47.460;19.016;2023-04-25T07:50:20;99265.41;;;12.67;87.47
58757;BME280;44527;47.460;19.016;2023-04-25T07:53:27;99260.19;;;13.04;82.51
58757;BME280;44527;47.460;19.016;2023-04-25T07:56:30;99263.03;;;12.73;86.79
58757;BME280;44527;47.460;19.016;2023-04-25T07:59:52;99260.56;;;13.19;83.27
58757;BME280;44527;47.460;19.016;2023-04-25T08:02:59;99245.34;;;13.50;80.51
58757;BME280;44527;47.460;19.016;2023-04-25T08:06:17;99243.53;;;13.78;80.93
58757;BME280;44527;47.460;19.016;2023-04-25T08:09:30;99251.75;;;14.11;78.65
58757;BME280;44527;47.460;19.016;2023-04-25T08:13:41;99249.19;;;14.19;76.43
58757;BME280;44527;47.460;19.016;2023-04-25T08:16:57;99256.72;;;14.14;74.95
58757;BME280;44527;47.460;19.016;2023-04-25T08:20:15;99251.69;;;14.02;73.47
58757;BME280;44527;47.460;19.016;2023-04-25T08:23:22;99251.38;;;14.06;78.63
58757;BME280;44527;47.460;19.016;2023-04-25T08:26:58;99264.34;;;14.35;75.72
58757;BME280;44527;47.460;19.016;2023-04-25T08:30:05;99266.19;;;14.52;72.79
58757;BME280;44527;47.460;19.016;2023-04-25T08:33:15;99272.56;;;14.49;71.11
58757;BME280;44527;47.460;19.016;2023-04-25T08:36:21;99267.56;;;14.82;72.77
58757;BME280;44527;47.460;19.016;2023-04-25T08:39:49;99271.38;;;15.14;69.03
58757;BME280;44527;47.460;19.016;2023-04-25T08:42:58;99278.22;;;15.25;67.73
58757;BME280;44527;47.460;19.016;2023-04-25T08:46:02;99279.88;;;15.60;69.75
58757;BME280;44527;47.460;19.016;2023-04-25T08:49:13;99280.03;;;15.24;69.20
58757;BME280;44527;47.460;19.016;2023-04-25T08:52:15;99280.97;;;15.15;66.98
58757;BME280;44527;47.460;19.016;2023-04-25T08:55:23;99289.19;;;15.38;68.11
58757;BME280;44527;47.460;19.016;2023-04-25T08:58:27;99286.44;;;15.48;65.72
58757;BME280;44527;47.460;19.016;2023-04-25T09:01:33;99292.59;;;15.56;66.31
58757;BME280;44527;47.460;19.016;2023-04-25T09:04:38;99290.91;;;15.21;66.85
58757;BME280;44527;47.460;19.016;2023-04-25T09:07:42;99289.88;;;15.48;64.19
58757;BME280;44527;47.460;19.016;2023-04-25T09:10:45;99297.94;;;15.38;67.15
58757;BME280;44527;47.460;19.016;2023-04-25T09:13:48;99297.03;;;15.56;67.08
58757;BME280;44527;47.460;19.016;2023-04-25T09:20:08;99308.88;;;15.44;65.26
58757;BME280;44527;47.460;19.016;2023-04-25T09:23:10;99300.69;;;15.97;62.60
58757;BME280;44527;47.460;19.016;2023-04-25T09:26:17;99293.00;;;16.53;62.42
58757;BME280;44527;47.460;19.016;2023-04-25T09:29:19;99302.44;;;16.64;61.77
58757;BME280;44527;47.460;19.016;2023-04-25T09:32:31;99296.62;;;16.52;63.71
58757;BME280;44527;47.460;19.016;2023-04-25T09:35:35;99296.31;;;16.39;62.17
58757;BME280;44527;47.460;19.016;2023-04-25T09:38:40;99295.38;;;15.97;62.01
58757;BME280;44527;47.460;19.016;2023-04-25T09:41:43;99292.47;;;16.25;63.90
58757;BME280;44527;47.460;19.016;2023-04-25T09:44:46;99285.19;;;16.19;63.53
58757;BME280;44527;47.460;19.016;2023-04-25T09:47:48;99296.28;;;16.22;60.30
58757;BME280;44527;47.460;19.016;2023-04-25T09:54:09;99290.00;;;16.64;60.88
58757;BME280;44527;47.460;19.016;2023-04-25T09:57:24;99280.06;;;16.34;57.76
58757;BME280;44527;47.460;19.016;2023-04-25T10:19:18;99291.25;;;15.87;59.93
58757;BME280;44527;47.460;19.016;2023-04-25T10:22:34;99294.34;;;15.74;61.64
58757;BME280;44527;47.460;19.016;2023-04-25T10:58:22;99305.09;;;16.80;56.37
58757;BME280;44527;47.460;19.016;2023-04-25T11:59:22;99336.06;;;17.04;49.66
58757;BME280;44527;47.460;19.016;2023-04-25T12:02:44;99340.06;;;17.00;51.01
58757;BME280;44527;47.460;19.016;2023-04-25T12:12:55;99345.69;;;17.85;45.37
58757;BME280;44527;47.460;19.016;2023-04-25T12:34:37;99330.56;;;17.86;42.44
58757;BME280;44527;47.460;19.016;2023-04-25T12:37:40;99333.25;;;17.78;42.24
58757;BME280;44527;47.460;19.016;2023-04-25T12:40:42;99321.56;;;17.48;41.59
58757;BME280;44527;47.460;19.016;2023-04-25T12:43:45;99336.41;;;17.09;44.83
58757;BME280;44527;47.460;19.016;2023-04-25T12:46:47;99318.34;;;16.80;42.18
58757;BME280;44527;47.460;19.016;2023-04-25T12:49:52;99319.50;;;16.69;42.08
58757;BME280;44527;47.460;19.016;2023-04-25T12:52:54;99313.22;;;16.62;44.51
58757;BME280;44527;47.460;19.016;2023-04-25T12:55:58;99311.56;;;17.02;43.09
58757;BME280;44527;47.460;19.016;2023-04-25T12:59:01;99301.94;;;17.09;43.57
58757;BME280;44527;47.460;19.016;2023-04-25T13:02:05;99305.97;;;16.81;44.61
58757;BME280;44527;47.460;19.016;2023-04-25T13:05:07;99305.59;;;17.08;43.04
58757;BME280;44527;47.460;19.016;2023-04-25T13:08:10;99300.78;;;16.95;41.90
58757;BME280;44527;47.460;19.016;2023-04-25T13:11:13;99315.03;;;17.03;44.00
58757;BME280;44527;47.460;19.016;2023-04-25T13:14:17;99297.97;;;16.64;42.79
58757;BME280;44527;47.460;19.016;2023-04-25T13:17:20;99300.63;;;16.64;44.33
58757;BME280;44527;47.460;19.016;2023-04-25T13:20:22;99301.78;;;16.45;43.56
58757;BME280;44527;47.460;19.016;2023-04-25T13:23:25;99301.78;;;16.53;42.98
58757;BME280;44527;47.460;19.016;2023-04-25T13:26:28;99291.84;;;16.39;41.77
58757;BME280;44527;47.460;19.016;2023-04-25T13:29:30;99299.25;;;16.11;41.66
58757;BME280;44527;47.460;19.016;2023-04-25T13:32:36;99293.13;;;16.19;42.25
58757;BME280;44527;47.460;19.016;2023-04-25T13:35:39;99291.66;;;16.16;42.58
58757;BME280;44527;47.460;19.016;2023-04-25T13:38:41;99284.34;;;16.10;43.73
58757;BME280;44527;47.460;19.016;2023-04-25T13:41:46;99286.19;;;16.18;42.47
58757;BME280;44527;47.460;19.016;2023-04-25T13:44:48;99276.28;;;16.36;43.61
58757;BME280;44527;47.460;19.016;2023-04-25T13:47:50;99283.53;;;16.34;41.07
58757;BME280;44527;47.460;19.016;2023-04-25T13:50:52;99286.84;;;16.28;41.18
58757;BME280;44527;47.460;19.016;2023-04-25T13:53:54;99283.22;;;16.29;42.03
58757;BME280;44527;47.460;19.016;2023-04-25T13:56:57;99291.44;;;16.01;42.37
58757;BME280;44527;47.460;19.016;2023-04-25T14:00:01;99280.16;;;15.83;42.97
58757;BME280;44527;47.460;19.016;2023-04-25T14:03:12;99279.28;;;15.74;43.33
58757;BME280;44527;47.460;19.016;2023-04-25T14:06:14;99288.12;;;15.99;42.67
58757;BME280;44527;47.460;19.016;2023-04-25T14:09:23;99287.78;;;15.94;41.77
58757;BME280;44527;47.460;19.016;2023-04-25T14:12:27;99285.66;;;15.98;42.06
58757;BME280;44527;47.460;19.016;2023-04-25T14:15:33;99281.97;;;15.91;42.92
58757;BME280;44527;47.460;19.016;2023-04-25T14:18:35;99277.19;;;15.86;42.83
58757;BME280;44527;47.460;19.016;2023-04-25T14:21:38;99284.81;;;15.97;41.22
58757;BME280;44527;47.460;19.016;2023-04-25T14:24:42;99292.09;;;15.95;41.40
58757;BME280;44527;47.460;19.016;2023-04-25T14:27:44;99282.31;;;15.79;40.55
58757;BME280;44527;47.460;19.016;2023-04-25T14:30:51;99287.97;;;15.67;40.09
58757;BME280;44527;47.460;19.016;2023-04-25T14:33:53;99292.44;;;15.66;39.91
58757;BME280;44527;47.460;19.016;2023-04-25T14:37:01;99292.78;;;15.63;42.13
58757;BME280;44527;47.460;19.016;2023-04-25T14:40:03;99290.56;;;15.50;41.04
58757;BME280;44527;47.460;19.016;2023-04-25T14:43:07;99280.19;;;15.57;41.38
58757;BME280;44527;47.460;19.016;2023-04-25T14:46:09;99283.09;;;15.72;41.94
58757;BME280;44527;47.460;19.016;2023-04-25T14:49:12;99270.56;;;15.90;42.12
58757;BME280;44527;47.460;19.016;2023-04-25T14:52:15;99273.41;;;15.89;40.54
58757;BME280;44527;47.460;19.016;2023-04-25T14:55:17;99270.94;;;15.95;42.99
58757;BME280;44527;47.460;19.016;2023-04-25T14:58:19;99270.09;;;15.95;41.56
58757;BME280;44527;47.460;19.016;2023-04-25T15:01:23;99271.25;;;15.92;41.91
58757;BME280;44527;47.460;19.016;2023-04-25T15:04:28;99277.69;;;15.90;42.41
58757;BME280;44527;47.460;19.016;2023-04-25T15:07:31;99279.69;;;15.96;42.38
58757;BME280;44527;47.460;19.016;2023-04-25T15:10:34;99281.00;;;16.00;41.90
58757;BME280;44527;47.460;19.016;2023-04-25T15:13:36;99288.47;;;16.04;43.02
58757;BME280;44527;47.460;19.016;2023-04-25T15:16:39;99284.97;;;15.96;41.05
58757;BME280;44527;47.460;19.016;2023-04-25T15:19:41;99283.84;;;15.98;41.77
58757;BME280;44527;47.460;19.016;2023-04-25T15:22:43;99298.69;;;15.91;41.58
58757;BME280;44527;47.460;19.016;2023-04-25T15:25:47;99301.84;;;15.60;41.54
58757;BME280;44527;47.460;19.016;2023-04-25T15:28:49;99294.28;;;15.31;41.75
58757;BME280;44527;47.460;19.016;2023-04-25T15:31:51;99291.38;;;15.16;42.54
58757;BME280;44527;47.460;19.016;2023-04-25T15:34:54;99303.59;;;15.09;43.21
58757;BME280;44527;47.460;19.016;2023-04-25T15:37:56;99299.75;;;15.04;43.29
58757;BME280;44527;47.460;19.016;2023-04-25T15:40:58;99302.69;;;15.01;44.06
58757;BME280;44527;47.460;19.016;2023-04-25T15:44:00;99296.34;;;14.93;45.01
58757;BME280;44527;47.460;19.016;2023-04-25T15:47:03;99298.66;;;14.88;44.80
58757;BME280;44527;47.460;19.016;2023-04-25T15:50:05;99300.97;;;14.91;45.01
58757;BME280;44527;47.460;19.016;2023-04-25T15:53:09;99305.88;;;14.86;46.88
58757;BME280;44527;47.460;19.016;2023-04-25T15:56:11;99308.47;;;14.78;50.25
58757;BME280;44527;47.460;19.016;2023-04-25T15:59:14;99305.97;;;14.77;52.51
58757;BME280;44527;47.460;19.016;2023-04-25T16:02:16;99311.09;;;14.78;54.39
58757;BME280;44527;47.460;19.016;2023-04-25T16:05:19;99309.53;;;14.67;54.73
58757;BME280;44527;47.460;19.016;2023-04-25T16:08:21;99300.59;;;14.51;55.10
58757;BME280;44527;47.460;19.016;2023-04-25T16:11:26;99304.47;;;14.38;54.45
58757;BME280;44527;47.460;19.016;2023-04-25T16:14:31;99309.88;;;14.19;56.96
58757;BME280;44527;47.460;19.016;2023-04-25T16:17:34;99312.31;;;14.12;56.18
58757;BME280;44527;47.460;19.016;2023-04-25T16:20:36;99312.22;;;14.04;56.51
58757;BME280;44527;47.460;19.016;2023-04-25T16:23:39;99311.25;;;14.05;56.83
58757;BME280;44527;47.460;19.016;2023-04-25T16:26:41;99310.84;;;14.00;57.15
58757;BME280;44527;47.460;19.016;2023-04-25T16:29:44;99307.16;;;14.11;57.26
58757;BME280;44527;47.460;19.016;2023-04-25T16:32:46;99308.97;;;14.10;57.10
58757;BME280;44527;47.460;19.016;2023-04-25T16:35:49;99306.41;;;14.00;56.39
58757;BME280;44527;47.460;19.016;2023-04-25T16:38:53;99304.97;;;14.06;57.23
58757;BME280;44527;47.460;19.016;2023-04-25T16:41:55;99303.84;;;14.09;56.50
58757;BME280;44527;47.460;19.016;2023-04-25T16:44:57;99300.53;;;14.07;56.72
58757;BME280;44527;47.460;19.016;2023-04-25T16:48:00;99311.56;;;13.92;58.96
58757;BME280;44527;47.460;19.016;2023-04-25T16:51:02;99306.34;;;14.10;58.09
58757;BME280;44527;47.460;19.016;2023-04-25T16:54:04;99304.06;;;13.97;56.90
58757;BME280;44527;47.460;19.016;2023-04-25T16:57:07;99308.81;;;13.94;56.92
58757;BME280;44527;47.460;19.016;2023-04-25T17:00:12;99303.44;;;13.86;57.16
58757;BME280;44527;47.460;19.016;2023-04-25T17:03:14;99310.56;;;13.75;56.95
58757;BME280;44527;47.460;19.016;2023-04-25T17:06:17;99308.94;;;13.65;57.62
58757;BME280;44527;47.460;19.016;2023-04-25T17:09:19;99309.53;;;13.59;56.94
58757;BME280;44527;47.460;19.016;2023-04-25T17:12:22;99328.31;;;13.46;57.47
58757;BME280;44527;47.460;19.016;2023-04-25T17:15:24;99332.34;;;13.40;58.34
58757;BME280;44527;47.460;19.016;2023-04-25T17:18:27;99327.09;;;13.40;59.21
58757;BME280;44527;47.460;19.016;2023-04-25T17:21:29;99327.28;;;13.19;60.08
58757;BME280;44527;47.460;19.016;2023-04-25T17:24:32;99329.63;;;13.13;61.42
58757;BME280;44527;47.460;19.016;2023-04-25T17:27:34;99329.09;;;13.09;60.76
58757;BME280;44527;47.460;19.016;2023-04-25T17:30:37;99329.66;;;13.03;61.22
58757;BME280;44527;47.460;19.016;2023-04-25T17:33:40;99339.22;;;13.04;60.53
58757;BME280;44527;47.460;19.016;2023-04-25T17:36:43;99353.37;;;13.03;60.34
58757;BME280;44527;47.460;19.016;2023-04-25T17:39:45;99351.56;;;12.94;61.79
58757;BME280;44527;47.460;19.016;2023-04-25T17:42:48;99360.47;;;12.83;63.24
58757;BME280;44527;47.460;19.016;2023-04-25T17:45:50;99358.13;;;12.80;63.32
58757;BME280;44527;47.460;19.016;2023-04-25T17:48:53;99366.28;;;12.48;64.62
58757;BME280;44527;47.460;19.016;2023-04-25T17:51:55;99371.25;;;12.41;65.76
58757;BME280;44527;47.460;19.016;2023-04-25T17:54:58;99369.19;;;12.45;65.76
58757;BME280;44527;47.460;19.016;2023-04-25T17:58:00;99367.53;;;12.44;65.91
58757;BME280;44527;47.460;19.016;2023-04-25T18:01:03;99365.28;;;12.29;67.42
58757;BME280;44527;47.460;19.016;2023-04-25T18:04:06;99379.69;;;12.35;66.49
58757;BME280;44527;47.460;19.016;2023-04-25T18:07:09;99379.41;;;12.38;67.67
58757;BME280;44527;47.460;19.016;2023-04-25T18:10:13;99387.97;;;12.21;69.09
58757;BME280;44527;47.460;19.016;2023-04-25T18:13:15;99390.41;;;12.03;69.71
58757;BME280;44527;47.460;19.016;2023-04-25T18:16:18;99396.53;;;12.03;70.22
58757;BME280;44527;47.460;19.016;2023-04-25T18:19:20;99399.34;;;11.90;70.13
58757;BME280;44527;47.460;19.016;2023-04-25T18:22:23;99395.25;;;11.98;70.56
58757;BME280;44527;47.460;19.016;2023-04-25T18:25:25;99399.09;;;11.93;71.30
58757;BME280;44527;47.460;19.016;2023-04-25T18:28:27;99403.53;;;11.93;71.60